createdAt,value
2018-03-20T00:00:05.365Z,9.02
2018-03-20T00:02:34.178Z,10.30
2018-03-20T00:05:08.092Z,10.05
2018-03-20T00:07:40.837Z,8.35
2018-03-20T00:10:14.520Z,9.23
2018-03-20T00:12:48.216Z,9.20
2018-03-20T00:15:27.672Z,9.60
2018-03-20T00:17:59.729Z,9.00
2018-03-20T00:20:40.337Z,9.88
2018-03-20T00:23:17.376Z,10.95
2018-03-20T00:25:50.901Z,10.18
2018-03-20T00:28:23.380Z,9.77
2018-03-20T00:30:51.429Z,10.48
2018-03-20T00:33:31.225Z,9.90
2018-03-20T00:36:09.137Z,10.68
2018-03-20T00:38:43.065Z,10.57
2018-03-20T00:41:31.185Z,9.23
2018-03-20T00:44:10.724Z,11.65
2018-03-20T00:46:59.657Z,10.43
2018-03-20T00:49:33.512Z,10.85
2018-03-20T00:52:02.497Z,10.25
2018-03-20T00:54:34.056Z,10.15
2018-03-20T00:57:03.072Z,10.50
2018-03-20T00:59:35.376Z,11.30
2018-03-20T01:02:22.683Z,10.45
2018-03-20T01:04:52.664Z,10.05
2018-03-20T01:07:26.644Z,10.60
2018-03-20T01:10:02.896Z,10.25
2018-03-20T01:12:42.556Z,12.00
2018-03-20T01:15:12.580Z,12.05
2018-03-20T01:17:40.600Z,12.00
2018-03-20T01:20:10.572Z,11.90
2018-03-20T01:22:39.576Z,10.25
2018-03-20T01:25:08.561Z,10.85
2018-03-20T01:30:40.880Z,13.30
2018-03-20T01:33:23.088Z,11.23
2018-03-20T01:35:52.056Z,13.07
2018-03-20T01:38:21.836Z,10.70
2018-03-20T01:41:02.948Z,10.90
2018-03-20T01:43:35.644Z,11.30
2018-03-20T01:49:04.816Z,10.85
2018-03-20T01:51:39.628Z,10.63
2018-03-20T01:54:21.280Z,12.02
2018-03-20T01:59:43.712Z,10.90
2018-03-20T02:02:16.983Z,10.80
2018-03-20T02:04:48.839Z,11.20
2018-03-20T02:07:24.375Z,10.73
2018-03-20T02:09:54.404Z,11.15
2018-03-20T02:15:17.099Z,11.77
2018-03-20T02:18:00.669Z,11.90
2018-03-20T02:20:31.440Z,11.12
2018-03-20T02:23:12.672Z,11.23
2018-03-20T02:25:53.404Z,11.30
2018-03-20T02:28:36.399Z,10.85
2018-03-20T02:31:10.974Z,10.63
2018-03-20T02:33:39.777Z,11.25
2018-03-20T02:36:07.820Z,12.10
2018-03-20T02:38:36.604Z,11.20
2018-03-20T02:41:05.437Z,10.63
2018-03-20T02:43:39.767Z,11.85
2018-03-20T02:46:12.773Z,12.85
2018-03-20T02:48:40.780Z,12.05
2018-03-20T02:51:14.848Z,13.00
2018-03-20T02:53:51.486Z,12.00
2018-03-20T02:56:20.528Z,10.45
2018-03-20T02:58:49.492Z,12.02
2018-03-20T03:01:18.517Z,11.73
2018-03-20T03:03:48.299Z,11.85
2018-03-20T03:06:19.333Z,11.20
2018-03-20T03:09:01.380Z,11.70
2018-03-20T03:11:35.780Z,10.95
2018-03-20T03:14:17.951Z,11.55
2018-03-20T03:16:46.180Z,12.35
2018-03-20T03:19:19.227Z,11.05
2018-03-20T03:21:55.583Z,10.75
2018-03-20T03:24:28.655Z,11.80
2018-03-20T03:27:04.448Z,10.50
2018-03-20T03:29:38.643Z,10.65
2018-03-20T03:32:07.637Z,10.65
2018-03-20T03:34:37.667Z,10.85
2018-03-20T03:37:07.455Z,11.63
2018-03-20T03:42:34.215Z,11.80
2018-03-20T03:45:06.095Z,11.63
2018-03-20T03:47:36.107Z,11.15
2018-03-20T03:53:16.535Z,11.45
2018-03-20T03:55:44.591Z,12.25
2018-03-20T03:58:27.976Z,10.90
2018-03-20T04:01:16.947Z,10.82
2018-03-20T04:03:53.531Z,11.75
2018-03-20T04:06:21.559Z,12.00
2018-03-20T04:08:52.735Z,10.52
2018-03-20T04:11:33.043Z,10.70
2018-03-20T04:14:02.055Z,9.38
2018-03-20T04:16:32.050Z,10.15
2018-03-20T04:19:05.795Z,10.80
2018-03-20T04:21:38.375Z,11.88
2018-03-20T04:24:06.395Z,9.57
2018-03-20T04:26:35.203Z,11.27
2018-03-20T04:29:26.811Z,11.18
2018-03-20T04:31:54.880Z,9.82
2018-03-20T04:34:22.907Z,10.65
2018-03-20T04:36:51.704Z,11.00
2018-03-20T04:39:39.567Z,10.20
2018-03-20T04:42:12.107Z,9.75
2018-03-20T04:44:42.127Z,10.82
2018-03-20T04:47:23.759Z,11.43
2018-03-20T04:50:10.588Z,13.50
2018-03-20T04:52:48.575Z,11.63
2018-03-20T04:55:34.999Z,11.45
2018-03-20T05:01:20.975Z,10.38
2018-03-20T05:03:53.796Z,11.12
2018-03-20T05:06:28.135Z,13.32
2018-03-20T05:09:01.038Z,11.98
2018-03-20T05:11:31.042Z,11.45
2018-03-20T05:13:59.839Z,13.32
2018-03-20T05:16:29.811Z,11.10
2018-03-20T05:19:03.879Z,12.45
2018-03-20T05:21:47.802Z,13.25
2018-03-20T05:24:16.587Z,11.73
2018-03-20T05:26:45.551Z,11.32
2018-03-20T05:29:14.546Z,11.32
2018-03-20T05:31:42.574Z,10.73
2018-03-20T05:34:11.259Z,11.70
2018-03-20T05:36:40.279Z,11.73
2018-03-20T05:39:10.279Z,11.45
2018-03-20T05:41:38.315Z,12.73
2018-03-20T05:44:09.495Z,12.77
2018-03-20T05:46:40.111Z,12.30
2018-03-20T05:49:12.614Z,12.60
2018-03-20T05:51:52.846Z,9.10
2018-03-20T05:54:20.865Z,9.68
2018-03-20T05:56:51.564Z,8.77
2018-03-20T05:59:25.151Z,8.90
2018-03-20T06:01:57.850Z,8.85
2018-03-20T06:04:32.338Z,9.82
2018-03-20T06:07:00.350Z,8.65
2018-03-20T06:09:32.730Z,9.35
2018-03-20T06:12:07.334Z,10.10
2018-03-20T06:14:36.322Z,9.75
2018-03-20T06:17:04.342Z,10.30
2018-03-20T06:19:32.356Z,9.57
2018-03-20T06:22:01.351Z,10.15
2018-03-20T06:24:29.374Z,10.32
2018-03-20T06:26:57.389Z,9.02
2018-03-20T06:29:33.482Z,10.10
2018-03-20T06:32:07.370Z,11.02
2018-03-20T06:34:41.557Z,8.75
2018-03-20T06:37:09.584Z,9.60
2018-03-20T06:39:38.338Z,10.00
2018-03-20T06:42:13.026Z,8.50
2018-03-20T06:44:42.959Z,9.30
2018-03-20T06:47:18.682Z,9.05
2018-03-20T06:49:57.402Z,9.48
2018-03-20T06:52:26.205Z,9.98
2018-03-20T06:55:07.634Z,10.00
2018-03-20T06:57:39.154Z,8.27
2018-03-20T07:02:32.966Z,9.68
2018-03-20T07:05:22.782Z,8.77
2018-03-20T07:07:57.178Z,9.43
2018-03-20T07:10:29.306Z,10.00
2018-03-20T07:13:12.367Z,8.57
2018-03-20T07:15:53.469Z,8.45
2018-03-20T07:18:39.042Z,9.52
2018-03-20T07:21:25.618Z,8.38
2018-03-20T07:24:01.410Z,8.40
2018-03-20T07:26:37.870Z,8.05
2018-03-20T07:29:10.990Z,7.70
2018-03-20T07:31:41.013Z,8.45
2018-03-20T07:40:13.594Z,8.18
2018-03-20T07:45:36.690Z,7.28
2018-03-20T07:48:12.622Z,7.47
2018-03-20T07:50:45.750Z,7.28
2018-03-20T07:53:38.358Z,8.15
2018-03-20T07:56:08.261Z,7.90
2018-03-20T07:58:37.018Z,7.78
2018-03-20T08:01:08.734Z,7.70
2018-03-20T08:03:36.734Z,7.57
2018-03-20T08:06:16.893Z,9.65
2018-03-20T08:08:47.910Z,8.90
2018-03-20T08:11:15.906Z,7.97
2018-03-20T08:13:43.950Z,7.70
2018-03-20T08:16:19.561Z,7.87
2018-03-20T08:18:49.482Z,8.00
2018-03-20T08:21:19.418Z,8.35
2018-03-20T08:23:52.968Z,7.90
2018-03-20T08:26:24.770Z,6.95
2018-03-20T08:28:52.797Z,8.13
2018-03-20T08:31:22.462Z,8.07
2018-03-20T08:33:50.478Z,7.18
2018-03-20T08:36:21.278Z,8.55
2018-03-20T08:38:49.269Z,6.95
2018-03-20T08:41:19.969Z,7.80
2018-03-20T08:43:48.857Z,8.38
2018-03-20T08:46:16.890Z,7.45
2018-03-20T08:48:45.774Z,6.87
2018-03-20T08:51:13.793Z,8.15
2018-03-20T08:53:45.425Z,7.93
2018-03-20T08:56:19.025Z,8.60
2018-03-20T08:58:47.038Z,8.90
2018-03-20T09:01:20.693Z,8.48
2018-03-20T09:03:48.737Z,8.05
2018-03-20T09:06:22.252Z,8.82
2018-03-20T09:08:50.221Z,8.25
2018-03-20T09:11:21.793Z,8.93
2018-03-20T09:13:50.690Z,7.22
2018-03-20T09:16:19.669Z,7.85
2018-03-20T09:18:47.677Z,7.35
2018-03-20T09:21:16.625Z,5.95
2018-03-20T09:23:50.309Z,7.45
2018-03-20T09:26:19.197Z,7.12
2018-03-20T09:28:48.109Z,6.95
2018-03-20T09:31:26.605Z,7.37
2018-03-20T09:33:57.577Z,7.40
2018-03-20T09:36:25.601Z,6.53
2018-03-20T09:39:00.865Z,5.97
2018-03-20T09:41:33.690Z,7.22
2018-03-20T09:44:11.425Z,6.40
2018-03-20T09:46:55.981Z,6.72
2018-03-20T09:49:24.249Z,5.65
2018-03-20T09:52:00.857Z,5.78
2018-03-20T09:54:29.869Z,5.90
2018-03-20T09:57:03.673Z,5.72
2018-03-20T09:59:37.357Z,4.75
2018-03-20T10:02:05.369Z,4.70
2018-03-20T10:04:36.681Z,4.82
2018-03-20T10:07:04.685Z,5.43
2018-03-20T10:09:36.098Z,5.00
2018-03-20T10:12:04.136Z,6.03
2018-03-20T10:14:33.029Z,5.32
2018-03-20T10:17:11.285Z,6.30
2018-03-20T10:19:39.301Z,5.18
2018-03-20T10:22:08.233Z,5.20
2018-03-20T10:24:36.229Z,5.57
2018-03-20T10:27:04.241Z,4.90
2018-03-20T10:29:37.375Z,5.35
2018-03-20T10:32:06.365Z,6.40
2018-03-20T10:34:40.716Z,6.07
2018-03-20T10:37:11.401Z,5.78
2018-03-20T10:39:39.401Z,5.00
2018-03-20T10:42:07.413Z,6.28
2018-03-20T10:44:36.325Z,7.05
2018-03-20T10:47:08.473Z,5.53
2018-03-20T10:49:36.485Z,5.90
2018-03-20T10:52:09.669Z,5.03
2018-03-20T10:54:46.555Z,5.55
2018-03-20T10:57:14.741Z,6.15
2018-03-20T10:59:43.029Z,5.85
2018-03-20T11:02:23.862Z,5.62
2018-03-20T11:04:59.417Z,6.18
2018-03-20T11:07:37.188Z,5.85
2018-03-20T11:10:12.101Z,5.07
2018-03-20T11:12:49.837Z,5.72
2018-03-20T11:15:21.480Z,4.90
2018-03-20T11:17:58.914Z,5.40
2018-03-20T11:20:31.196Z,4.95
2018-03-20T11:23:07.421Z,4.20
2018-03-20T11:25:38.823Z,4.50
2018-03-20T11:28:13.608Z,4.85
2018-03-20T11:30:45.229Z,4.18
2018-03-20T11:33:24.221Z,4.32
2018-03-20T11:36:06.839Z,4.40
2018-03-20T11:38:38.600Z,4.35
2018-03-20T11:41:12.544Z,5.00
2018-03-20T11:43:52.316Z,4.75
2018-03-20T11:46:23.844Z,5.07
2018-03-20T11:48:55.736Z,4.28
2018-03-20T11:51:26.272Z,4.20
2018-03-20T11:54:02.832Z,5.62
2018-03-20T11:56:39.356Z,5.12
2018-03-20T11:59:12.045Z,5.10
2018-03-20T12:01:41.812Z,5.93
2018-03-20T12:04:27.664Z,5.07
2018-03-20T12:07:12.536Z,5.70
2018-03-20T12:09:48.520Z,5.65
2018-03-20T12:12:19.544Z,4.95
2018-03-20T12:14:48.328Z,5.65
2018-03-20T12:17:18.988Z,5.93
2018-03-20T12:19:47.001Z,6.35
2018-03-20T12:22:15.020Z,4.75
2018-03-20T12:24:43.388Z,5.45
2018-03-20T12:27:21.728Z,5.37
2018-03-20T12:29:55.619Z,5.03
2018-03-20T12:32:24.411Z,6.03
2018-03-20T12:34:58.212Z,5.37
2018-03-20T12:37:26.240Z,6.05
2018-03-20T12:40:06.640Z,6.18
2018-03-20T12:42:35.864Z,5.97
2018-03-20T12:45:03.856Z,5.75
2018-03-20T12:47:33.768Z,5.75
2018-03-20T12:50:03.669Z,5.45
2018-03-20T12:52:32.575Z,5.82
2018-03-20T12:55:00.600Z,5.70
2018-03-20T12:57:28.603Z,6.10
2018-03-20T13:00:00.120Z,5.55
2018-03-20T13:02:28.128Z,6.97
2018-03-20T13:04:59.784Z,5.20
2018-03-20T13:07:28.675Z,5.78
2018-03-20T13:09:56.698Z,5.90
2018-03-20T13:12:26.443Z,5.37
2018-03-20T13:14:56.364Z,6.72
2018-03-20T13:17:24.364Z,6.65
2018-03-20T13:19:59.311Z,6.97
2018-03-20T13:22:31.419Z,6.43
2018-03-20T13:24:59.431Z,5.97
2018-03-20T13:27:28.232Z,6.93
2018-03-20T13:29:58.931Z,6.50
2018-03-20T13:32:30.611Z,5.70
2018-03-20T13:34:59.379Z,6.50
2018-03-20T13:37:30.932Z,6.60
2018-03-20T13:39:58.935Z,6.10
2018-03-20T13:42:33.511Z,6.18
2018-03-20T13:45:02.491Z,5.93
2018-03-20T13:47:30.495Z,6.40
2018-03-20T13:50:02.604Z,6.10
2018-03-20T13:52:31.531Z,6.12
2018-03-20T13:55:06.631Z,5.70
2018-03-20T13:57:35.403Z,6.25
2018-03-20T14:00:05.423Z,7.05
2018-03-20T14:02:33.387Z,7.05
2018-03-20T14:05:03.055Z,7.10
2018-03-20T14:07:31.056Z,7.95
2018-03-20T14:10:13.879Z,6.60
2018-03-20T14:12:43.771Z,8.00
2018-03-20T14:15:15.523Z,8.20
2018-03-20T14:17:43.530Z,7.93
2018-03-20T14:20:23.899Z,8.50
2018-03-20T14:22:59.650Z,9.70
2018-03-20T14:25:34.279Z,9.30
2018-03-20T14:28:05.335Z,9.45
2018-03-20T14:30:33.575Z,8.32
2018-03-20T14:33:03.502Z,8.73
2018-03-20T14:35:34.140Z,9.68
2018-03-20T14:38:02.152Z,8.82
2018-03-20T14:40:33.258Z,9.70
2018-03-20T14:43:01.467Z,8.63
2018-03-20T14:45:34.579Z,10.23
2018-03-20T14:48:09.279Z,9.00
2018-03-20T14:50:38.411Z,8.68
2018-03-20T14:53:06.439Z,10.60
2018-03-20T14:55:38.506Z,10.43
2018-03-20T14:58:13.003Z,14.55
2018-03-20T15:00:40.978Z,10.70
2018-03-20T15:03:09.140Z,11.57
2018-03-20T15:05:50.966Z,11.70
2018-03-20T15:08:24.303Z,12.15
2018-03-20T15:11:10.398Z,11.98
2018-03-20T15:13:50.494Z,10.95
2018-03-20T15:16:34.135Z,10.68
2018-03-20T15:21:58.724Z,12.77
2018-03-20T15:24:41.390Z,10.57
2018-03-20T15:27:13.059Z,12.57
2018-03-20T15:29:56.603Z,12.32
2018-03-20T15:32:38.403Z,11.00
2018-03-20T15:38:03.819Z,10.77
2018-03-20T15:40:42.320Z,12.65
2018-03-20T15:43:17.071Z,11.85
2018-03-20T15:45:48.249Z,14.95
2018-03-20T15:48:29.659Z,12.32
2018-03-20T15:51:01.874Z,11.55
2018-03-20T15:53:34.515Z,11.88
2018-03-20T15:56:07.239Z,11.95
2018-03-20T15:58:35.267Z,12.37
2018-03-20T16:01:07.583Z,13.35
2018-03-20T16:03:35.633Z,12.90
2018-03-20T16:06:03.635Z,12.65
2018-03-20T16:08:32.548Z,11.75
2018-03-20T16:11:02.307Z,11.85
2018-03-20T16:13:33.983Z,11.55
2018-03-20T16:16:02.003Z,13.45
2018-03-20T16:18:31.910Z,14.73
2018-03-20T16:21:13.107Z,11.88
2018-03-20T16:23:41.120Z,13.10
2018-03-20T16:26:13.951Z,15.13
2018-03-20T16:28:43.861Z,12.57
2018-03-20T16:31:18.235Z,12.52
2018-03-20T16:33:46.278Z,13.05
2018-03-20T16:36:14.283Z,12.32
2018-03-20T16:38:46.524Z,12.75
2018-03-20T16:41:28.554Z,11.82
2018-03-20T16:46:57.238Z,13.30
2018-03-20T16:49:25.246Z,11.38
2018-03-20T16:51:53.251Z,11.90
2018-03-20T16:54:21.711Z,12.80
2018-03-20T16:56:49.739Z,12.05
2018-03-20T16:59:34.330Z,11.98
2018-03-20T17:02:07.570Z,13.57
2018-03-20T17:04:36.470Z,12.75
2018-03-20T17:07:06.671Z,12.88
2018-03-20T17:09:34.682Z,14.63
2018-03-20T17:12:07.934Z,13.65
2018-03-20T17:14:39.587Z,14.20
2018-03-20T17:17:07.640Z,14.10
2018-03-20T17:19:42.874Z,14.27
2018-03-20T17:22:12.787Z,13.35
2018-03-20T17:24:54.010Z,13.05
2018-03-20T17:27:21.999Z,13.27
2018-03-20T17:29:50.782Z,13.65
2018-03-20T17:32:19.555Z,14.02
2018-03-20T17:34:47.570Z,15.70
2018-03-20T17:37:15.582Z,14.85
2018-03-20T17:39:49.041Z,13.77
2018-03-20T17:42:16.979Z,15.95
2018-03-20T17:44:49.822Z,15.57
2018-03-20T17:47:17.834Z,14.77
2018-03-20T17:49:45.850Z,16.50
2018-03-20T17:52:13.862Z,13.27
2018-03-20T17:54:46.000Z,16.42
2018-03-20T17:57:17.731Z,16.62
2018-03-20T17:59:49.612Z,16.35
2018-03-20T18:02:17.626Z,17.55
2018-03-20T18:04:52.326Z,16.33
2018-03-20T18:07:20.334Z,15.85
2018-03-20T18:09:49.262Z,15.68
2018-03-20T18:12:18.216Z,16.80
2018-03-20T18:14:47.211Z,17.48
2018-03-20T18:17:15.962Z,16.98
2018-03-20T18:19:47.578Z,16.45
2018-03-20T18:22:15.606Z,17.77
2018-03-20T18:24:44.370Z,26.50
2018-03-20T18:27:13.154Z,18.23
2018-03-20T18:29:42.054Z,21.00
2018-03-20T18:32:13.682Z,19.30
2018-03-20T18:34:41.706Z,19.73
2018-03-20T18:37:17.946Z,17.33
2018-03-20T18:39:46.498Z,19.75
2018-03-20T18:42:17.729Z,20.02
2018-03-20T18:44:54.110Z,17.23
2018-03-20T18:47:22.102Z,18.12
2018-03-20T18:49:50.110Z,17.77
2018-03-20T18:52:18.117Z,22.92
2018-03-20T18:54:48.638Z,18.75
2018-03-20T18:57:17.630Z,21.17
2018-03-20T18:59:45.702Z,21.12
2018-03-20T19:02:15.618Z,20.20
2018-03-20T19:04:44.534Z,19.02
2018-03-20T19:07:13.506Z,19.95
2018-03-20T19:09:42.405Z,17.70
2018-03-20T19:12:12.407Z,19.10
2018-03-20T19:14:43.538Z,19.48
2018-03-20T19:17:11.577Z,18.15
2018-03-20T19:19:39.582Z,18.00
2018-03-20T19:22:15.614Z,18.40
2018-03-20T19:24:43.622Z,18.55
2018-03-20T19:27:11.634Z,18.67
2018-03-20T19:29:46.162Z,21.30
2018-03-20T19:32:17.998Z,19.65
2018-03-20T19:34:46.781Z,20.02
2018-03-20T19:37:15.829Z,19.08
2018-03-20T19:39:43.854Z,20.48
2018-03-20T19:42:20.146Z,19.27
2018-03-20T19:44:48.154Z,19.45
2018-03-20T19:47:19.893Z,18.92
2018-03-20T19:49:49.826Z,19.67
2018-03-20T19:52:18.809Z,17.58
2018-03-20T19:54:46.825Z,20.10
2018-03-20T19:57:15.637Z,20.33
2018-03-20T19:59:50.375Z,18.42
2018-03-20T20:02:25.192Z,19.77
2018-03-20T20:04:53.209Z,16.70
2018-03-20T20:07:23.222Z,18.60
2018-03-20T20:09:56.597Z,19.42
2018-03-20T20:12:25.605Z,18.10
2018-03-20T20:14:58.954Z,20.12
2018-03-20T20:17:28.920Z,17.80
2018-03-20T20:22:59.277Z,16.83
2018-03-20T20:25:27.393Z,17.02
2018-03-20T20:27:55.666Z,19.15
2018-03-20T20:30:31.053Z,18.45
2018-03-20T20:33:20.925Z,16.52
2018-03-20T20:35:57.125Z,17.17
2018-03-20T20:38:26.149Z,16.65
2018-03-20T20:41:08.580Z,14.68
2018-03-20T20:43:36.588Z,17.20
2018-03-20T20:46:06.379Z,14.30
2018-03-20T20:48:35.369Z,16.40
2018-03-20T20:51:03.379Z,14.98
2018-03-20T20:53:32.309Z,16.17
2018-03-20T20:56:00.337Z,14.57
2018-03-20T20:58:29.277Z,14.80
2018-03-20T21:01:00.641Z,14.70
2018-03-20T21:03:28.665Z,14.20
2018-03-20T21:05:56.698Z,13.13
2018-03-20T21:08:25.488Z,15.95
2018-03-20T21:11:00.011Z,14.57
2018-03-20T21:13:29.893Z,14.35
2018-03-20T21:15:58.889Z,15.65
2018-03-20T21:21:26.044Z,14.90
2018-03-20T21:23:55.049Z,13.05
2018-03-20T21:26:23.068Z,14.00
2018-03-20T21:28:54.488Z,14.98
2018-03-20T21:31:24.272Z,13.15
2018-03-20T21:33:52.801Z,13.50
2018-03-20T21:36:20.873Z,14.57
2018-03-20T21:38:48.853Z,15.00
2018-03-20T21:41:17.809Z,14.80
2018-03-20T21:43:46.612Z,14.05
2018-03-20T21:46:15.377Z,14.50
2018-03-20T21:48:43.501Z,14.93
2018-03-20T21:51:13.517Z,13.88
2018-03-20T21:53:43.453Z,13.95
2018-03-20T21:56:12.469Z,12.45
2018-03-20T21:58:40.513Z,13.40
2018-03-20T22:01:11.709Z,14.13
2018-03-20T22:03:41.689Z,15.23
2018-03-20T22:06:10.703Z,14.38
2018-03-20T22:08:38.712Z,13.05
2018-03-20T22:11:14.049Z,14.18
2018-03-20T22:13:46.082Z,14.73
2018-03-20T22:16:15.868Z,14.23
2018-03-20T22:18:43.921Z,15.35
2018-03-20T22:21:11.949Z,13.65
2018-03-20T22:23:39.993Z,14.77
2018-03-20T22:26:08.000Z,16.35
2018-03-20T22:28:36.056Z,15.27
2018-03-20T22:31:05.836Z,14.77
2018-03-20T22:33:34.816Z,14.73
2018-03-20T22:36:02.852Z,15.82
2018-03-20T22:38:30.900Z,14.80
2018-03-20T22:40:58.923Z,15.02
2018-03-20T22:43:32.580Z,16.27
2018-03-20T22:46:12.034Z,15.18
2018-03-20T22:48:44.082Z,15.18
2018-03-20T22:51:15.701Z,15.23
2018-03-20T22:53:44.677Z,15.40
2018-03-20T22:56:13.680Z,13.07
2018-03-20T22:58:47.776Z,16.35
2018-03-20T23:01:17.801Z,15.38
2018-03-20T23:03:45.863Z,16.05
2018-03-20T23:06:13.892Z,16.00
2018-03-20T23:08:41.952Z,15.25
2018-03-20T23:11:11.732Z,17.12
2018-03-20T23:13:43.577Z,15.65
2018-03-20T23:16:15.228Z,14.45
2018-03-20T23:18:43.245Z,16.20
2018-03-20T23:21:11.292Z,15.65
2018-03-20T23:23:40.084Z,15.73
2018-03-20T23:26:10.868Z,16.08
2018-03-20T23:28:42.648Z,15.27
2018-03-20T23:31:16.477Z,15.00
2018-03-20T23:33:51.188Z,15.43
2018-03-20T23:36:19.264Z,14.02
2018-03-20T23:38:47.293Z,16.08
2018-03-20T23:41:19.308Z,14.68
2018-03-20T23:43:53.032Z,16.77
2018-03-20T23:46:22.052Z,15.27
2018-03-20T23:48:50.140Z,14.25
2018-03-20T23:51:22.310Z,14.65
2018-03-20T23:53:51.209Z,14.55
2018-03-20T23:56:20.228Z,14.25
2018-03-20T23:58:53.201Z,13.52
